Time;durP1;ratioP1;P1;durP2;ratioP2;P2;SDS_P1;SDS_P2;PMS_P1;PMS_P2;Temp;Humidity;BMP_temperature;BMP_pressure;BME280_temperature;BME280_humidity;BME280_pressure;Samples;Min_cycle;Max_cycle;Signal;HPM_P1;HPM_P2
2023/09/26 00:02:14;;;;;;;16.02;11.10;;;;;;;;;;4954741;28;20051;-62
2023/09/26 00:04:41;;;;;;;13.80;10.90;;;;;;;;;;4954240;28;20086;-64
2023/09/26 00:07:08;;;;;;;14.13;10.50;;;;;;;;;;4954511;29;20055;-64
2023/09/26 00:09:35;;;;;;;13.90;10.60;;;;;;;;;;4954319;29;20055;-63
2023/09/26 00:12:04;;;;;;;15.30;11.60;;;;;;;;;;4954217;29;20094;-64
2023/09/26 00:14:30;;;;;;;16.45;12.30;;;;;;;;;;4954583;28;20078;-62
2023/09/26 00:16:57;;;;;;;16.67;11.85;;;;;;;;;;4954097;29;20138;-64
2023/09/26 00:19:23;;;;;;;16.33;12.38;;;;;;;;;;4971949;28;20046;-65
2023/09/26 00:21:50;;;;;;;15.20;11.35;;;;;;;;;;4973376;28;20134;-65
2023/09/26 00:24:17;;;;;;;15.02;11.23;;;;;;;;;;4973460;28;20072;-62
2023/09/26 00:26:43;;;;;;;16.40;11.77;;;;;;;;;;4973422;28;20538;-62
2023/09/26 00:29:12;;;;;;;15.80;11.52;;;;;;;;;;4973511;28;20566;-62
2023/09/26 00:31:39;;;;;;;16.00;11.75;;;;;;;;;;4972924;28;20426;-63
2023/09/26 00:34:05;;;;;;;15.50;11.35;;;;;;;;;;4964742;28;20058;-62
2023/09/26 00:36:32;;;;;;;16.27;11.75;;;;;;;;;;4956447;28;20145;-63
2023/09/26 00:38:59;;;;;;;14.23;10.23;;;;;;;;;;4961829;28;20506;-59
2023/09/26 00:41:25;;;;;;;14.82;11.63;;;;;;;;;;4976256;28;20143;-60
2023/09/26 00:43:52;;;;;;;13.27;10.75;;;;;;;;;;4980645;28;20042;-63
2023/09/26 00:46:20;;;;;;;15.52;11.73;;;;;;;;;;4970748;28;20043;-63
2023/09/26 00:48:47;;;;;;;16.75;11.23;;;;;;;;;;4957796;28;20052;-60
2023/09/26 00:51:14;;;;;;;13.80;10.75;;;;;;;;;;4966049;28;20047;-61
2023/09/26 00:53:42;;;;;;;16.42;10.65;;;;;;;;;;4954402;28;20043;-61
2023/09/26 00:56:09;;;;;;;15.25;10.93;;;;;;;;;;4953384;28;20083;-58
2023/09/26 00:58:37;;;;;;;13.55;10.18;;;;;;;;;;4969022;28;20049;-60
2023/09/26 01:01:05;;;;;;;14.88;10.55;;;;;;;;;;4968996;28;20145;-62
2023/09/26 01:03:33;;;;;;;14.52;10.95;;;;;;;;;;4968579;28;20050;-63
2023/09/26 01:06:02;;;;;;;15.05;11.68;;;;;;;;;;4974772;28;20046;-61
2023/09/26 01:08:30;;;;;;;17.23;11.32;;;;;;;;;;4967819;28;20055;-62
2023/09/26 01:10:57;;;;;;;13.70;10.70;;;;;;;;;;4971059;28;20073;-63
2023/09/26 01:13:24;;;;;;;13.25;10.93;;;;;;;;;;4969175;28;20054;-64
2023/09/26 01:15:51;;;;;;;14.75;10.63;;;;;;;;;;4968970;28;20039;-66
2023/09/26 01:18:23;;;;;;;13.38;9.90;;;;;;;;;;4968289;28;20076;-64
2023/09/26 01:20:51;;;;;;;14.75;10.90;;;;;;;;;;4962204;28;20550;-66
2023/09/26 01:23:22;;;;;;;14.60;11.07;;;;;;;;;;4956166;28;20073;-63
2023/09/26 01:25:50;;;;;;;12.43;9.70;;;;;;;;;;4967725;28;20050;-63
2023/09/26 01:28:18;;;;;;;13.15;10.15;;;;;;;;;;4978575;28;20053;-63
2023/09/26 01:30:45;;;;;;;13.98;9.98;;;;;;;;;;4964490;28;20518;-64
2023/09/26 01:33:16;;;;;;;12.63;10.25;;;;;;;;;;4968593;28;20051;-64
2023/09/26 01:35:42;;;;;;;12.85;9.35;;;;;;;;;;4966598;28;20043;-62
2023/09/26 01:38:09;;;;;;;14.02;10.48;;;;;;;;;;4959599;28;20051;-64
2023/09/26 01:40:36;;;;;;;13.07;9.23;;;;;;;;;;4952870;28;20126;-63
2023/09/26 01:43:04;;;;;;;13.45;9.30;;;;;;;;;;4953379;28;20476;-62
2023/09/26 01:45:31;;;;;;;14.13;10.68;;;;;;;;;;4953209;28;20054;-63
2023/09/26 01:47:59;;;;;;;12.50;9.23;;;;;;;;;;4961856;28;20051;-63
2023/09/26 01:50:25;;;;;;;12.52;9.50;;;;;;;;;;4961174;28;20482;-63
2023/09/26 01:52:52;;;;;;;13.75;9.70;;;;;;;;;;4967378;28;20121;-63
2023/09/26 01:55:20;;;;;;;12.68;9.18;;;;;;;;;;4954706;28;20791;-63
2023/09/26 01:57:47;;;;;;;14.38;11.10;;;;;;;;;;4953180;28;20043;-63
2023/09/26 02:00:17;;;;;;;19.45;13.60;;;;;;;;;;4957860;28;20059;-63
2023/09/26 02:02:45;;;;;;;16.40;11.23;;;;;;;;;;4965671;28;20043;-63
2023/09/26 02:05:13;;;;;;;14.27;11.57;;;;;;;;;;4958281;28;20048;-63
2023/09/26 02:07:41;;;;;;;12.88;11.05;;;;;;;;;;4967538;28;20425;-63
2023/09/26 02:10:08;;;;;;;14.68;10.77;;;;;;;;;;4975215;28;20584;-63
2023/09/26 02:12:36;;;;;;;17.98;10.65;;;;;;;;;;4958836;28;20065;-62
2023/09/26 02:15:04;;;;;;;14.15;10.77;;;;;;;;;;4963144;28;20049;-63
2023/09/26 02:17:33;;;;;;;15.55;11.75;;;;;;;;;;4966122;28;20057;-62
2023/09/26 02:20:00;;;;;;;14.95;10.90;;;;;;;;;;4960830;28;20049;-62
2023/09/26 02:22:27;;;;;;;13.82;10.57;;;;;;;;;;4967520;28;20130;-62
2023/09/26 02:24:54;;;;;;;16.63;11.05;;;;;;;;;;4972718;28;20045;-62
2023/09/26 02:27:20;;;;;;;13.13;11.25;;;;;;;;;;4957020;28;20057;-63
2023/09/26 02:29:47;;;;;;;15.35;10.98;;;;;;;;;;4964465;28;20126;-62
2023/09/26 02:32:14;;;;;;;12.88;10.75;;;;;;;;;;4964697;28;20051;-62
2023/09/26 02:34:42;;;;;;;15.63;10.77;;;;;;;;;;4971646;28;20098;-62
2023/09/26 02:37:09;;;;;;;13.00;10.38;;;;;;;;;;4958706;28;20134;-62
2023/09/26 02:39:35;;;;;;;15.57;10.55;;;;;;;;;;4974596;28;20046;-62
2023/09/26 02:42:02;;;;;;;12.48;9.82;;;;;;;;;;4959685;28;20055;-62
2023/09/26 02:44:28;;;;;;;16.30;11.18;;;;;;;;;;4958474;28;20526;-62
2023/09/26 02:46:55;;;;;;;14.02;10.27;;;;;;;;;;4955889;28;20136;-63
2023/09/26 02:49:22;;;;;;;13.88;10.57;;;;;;;;;;4969824;28;20134;-62
2023/09/26 02:51:50;;;;;;;12.90;10.00;;;;;;;;;;4963833;28;20418;-61
2023/09/26 02:54:16;;;;;;;13.30;9.40;;;;;;;;;;4961557;28;20049;-62
2023/09/26 02:56:43;;;;;;;13.50;9.68;;;;;;;;;;4969049;28;20039;-63
2023/09/26 02:59:10;;;;;;;13.40;10.00;;;;;;;;;;4973867;28;20066;-64
2023/09/26 03:01:36;;;;;;;13.13;10.00;;;;;;;;;;4954989;28;20126;-62
2023/09/26 03:04:03;;;;;;;15.68;9.70;;;;;;;;;;4964355;28;20506;-62
2023/09/26 03:06:30;;;;;;;13.45;9.82;;;;;;;;;;4963234;28;20043;-62
2023/09/26 03:08:58;;;;;;;13.85;9.65;;;;;;;;;;4955299;28;20511;-64
2023/09/26 03:11:25;;;;;;;13.77;9.95;;;;;;;;;;4954165;28;20062;-62
2023/09/26 03:13:51;;;;;;;14.02;9.57;;;;;;;;;;4956979;28;20478;-62
2023/09/26 03:16:18;;;;;;;14.02;10.00;;;;;;;;;;4964684;28;20146;-62
2023/09/26 03:18:46;;;;;;;12.07;9.70;;;;;;;;;;4977024;28;20494;-62
2023/09/26 03:21:12;;;;;;;11.27;9.15;;;;;;;;;;4986525;28;20137;-62
2023/09/26 03:23:39;;;;;;;15.20;10.30;;;;;;;;;;4983684;28;20043;-62
2023/09/26 03:26:12;;;;;;;11.88;9.65;;;;;;;;;;4962126;28;20502;-63
2023/09/26 03:28:39;;;;;;;13.07;9.80;;;;;;;;;;4965009;28;20047;-63
2023/09/26 03:31:06;;;;;;;14.25;9.23;;;;;;;;;;4966070;28;20082;-62
2023/09/26 03:33:33;;;;;;;14.32;9.80;;;;;;;;;;4971766;28;20095;-63
2023/09/26 03:36:00;;;;;;;13.48;10.30;;;;;;;;;;4970013;28;20647;-63
2023/09/26 03:38:26;;;;;;;13.50;10.13;;;;;;;;;;4958316;28;20511;-63
2023/09/26 03:40:57;;;;;;;13.77;10.10;;;;;;;;;;4963575;28;20047;-63
2023/09/26 03:43:25;;;;;;;15.07;10.43;;;;;;;;;;4963859;28;20046;-63
2023/09/26 03:45:51;;;;;;;12.93;10.90;;;;;;;;;;4960005;28;20051;-63
2023/09/26 03:48:18;;;;;;;13.23;10.70;;;;;;;;;;4954808;28;20244;-63
2023/09/26 03:50:46;;;;;;;14.52;10.85;;;;;;;;;;4954343;28;20074;-63
2023/09/26 03:53:13;;;;;;;15.48;10.23;;;;;;;;;;4959501;28;20069;-62
2023/09/26 03:55:40;;;;;;;13.88;11.05;;;;;;;;;;4961302;28;20047;-63
2023/09/26 03:58:06;;;;;;;13.88;10.35;;;;;;;;;;4954148;28;20168;-63
2023/09/26 04:00:34;;;;;;;14.60;10.98;;;;;;;;;;4954295;28;20054;-63
2023/09/26 04:03:01;;;;;;;13.85;9.85;;;;;;;;;;4960130;28;20043;-63
2023/09/26 04:05:28;;;;;;;14.82;11.05;;;;;;;;;;4961367;28;20047;-63
2023/09/26 04:07:55;;;;;;;13.63;10.15;;;;;;;;;;4959437;28;20478;-63
2023/09/26 04:10:21;;;;;;;15.68;10.43;;;;;;;;;;4966393;28;20117;-63
2023/09/26 04:12:48;;;;;;;12.85;9.13;;;;;;;;;;4968755;28;20134;-64
2023/09/26 04:15:15;;;;;;;13.95;10.70;;;;;;;;;;4954467;28;20356;-65
2023/09/26 04:17:43;;;;;;;13.32;9.90;;;;;;;;;;4967154;28;20047;-65
2023/09/26 04:20:13;;;;;;;14.43;9.50;;;;;;;;;;4973664;28;20043;-64
2023/09/26 04:22:39;;;;;;;13.98;9.82;;;;;;;;;;4973658;28;20525;-64
2023/09/26 04:25:06;;;;;;;16.48;9.82;;;;;;;;;;4973580;28;20058;-64
2023/09/26 04:27:33;;;;;;;12.25;9.70;;;;;;;;;;4973154;28;20086;-65
2023/09/26 04:29:59;;;;;;;14.25;9.52;;;;;;;;;;4973739;28;20094;-63
2023/09/26 04:32:26;;;;;;;12.13;9.25;;;;;;;;;;4973306;28;20134;-64
2023/09/26 04:34:54;;;;;;;13.65;9.40;;;;;;;;;;4973558;28;20053;-62
2023/09/26 04:37:21;;;;;;;12.93;9.80;;;;;;;;;;4973626;28;20129;-64
2023/09/26 04:39:48;;;;;;;18.65;15.80;;;;;;;;;;4973709;28;20051;-64
2023/09/26 04:42:14;;;;;;;19.83;17.80;;;;;;;;;;4972914;28;20061;-65
2023/09/26 04:44:41;;;;;;;20.70;17.48;;;;;;;;;;4973219;28;20537;-65
2023/09/26 04:47:08;;;;;;;19.52;16.90;;;;;;;;;;4973165;28;20056;-63
2023/09/26 04:49:34;;;;;;;17.00;14.93;;;;;;;;;;4972879;28;20133;-62
2023/09/26 04:52:03;;;;;;;14.75;11.02;;;;;;;;;;4961433;28;20507;-62
2023/09/26 04:54:30;;;;;;;15.50;10.30;;;;;;;;;;4957815;28;20489;-61
2023/09/26 04:56:57;;;;;;;12.00;10.02;;;;;;;;;;4953836;28;20054;-62
2023/09/26 04:59:23;;;;;;;14.60;9.77;;;;;;;;;;4961926;28;20046;-62
2023/09/26 05:01:50;;;;;;;13.80;9.00;;;;;;;;;;4971989;28;20134;-63
2023/09/26 05:04:17;;;;;;;11.70;8.90;;;;;;;;;;4963723;28;20134;-64
2023/09/26 05:06:43;;;;;;;14.95;10.27;;;;;;;;;;4954172;28;20047;-63
2023/09/26 05:09:11;;;;;;;16.67;11.18;;;;;;;;;;4960001;28;20047;-62
2023/09/26 05:11:38;;;;;;;13.95;10.13;;;;;;;;;;4964145;28;20140;-62
2023/09/26 05:14:05;;;;;;;18.13;11.88;;;;;;;;;;4959920;28;20138;-62
2023/09/26 05:16:31;;;;;;;13.38;9.98;;;;;;;;;;4967996;28;20047;-62
2023/09/26 05:18:58;;;;;;;13.52;10.30;;;;;;;;;;4975590;28;20050;-63
2023/09/26 05:21:24;;;;;;;13.50;10.18;;;;;;;;;;4969952;28;20046;-62
2023/09/26 05:23:52;;;;;;;14.48;8.85;;;;;;;;;;4975964;28;20097;-61
2023/09/26 05:26:20;;;;;;;15.55;9.13;;;;;;;;;;4967493;28;20462;-63
2023/09/26 05:28:46;;;;;;;13.98;9.23;;;;;;;;;;4971156;28;20047;-63
2023/09/26 05:31:13;;;;;;;13.45;9.70;;;;;;;;;;4954010;28;20139;-62
2023/09/26 05:33:39;;;;;;;14.25;9.80;;;;;;;;;;4955185;28;20514;-62
2023/09/26 05:36:06;;;;;;;13.80;9.73;;;;;;;;;;4963292;28;20118;-61
2023/09/26 05:38:33;;;;;;;14.65;9.68;;;;;;;;;;4957799;28;20051;-62
2023/09/26 05:41:00;;;;;;;12.07;9.00;;;;;;;;;;4972683;28;20145;-62
2023/09/26 05:43:29;;;;;;;14.65;9.40;;;;;;;;;;4962692;28;20051;-61
2023/09/26 05:45:56;;;;;;;13.55;8.98;;;;;;;;;;4963937;28;20514;-60
2023/09/26 05:48:22;;;;;;;15.48;9.88;;;;;;;;;;4968018;28;20135;-62
2023/09/26 05:50:49;;;;;;;12.75;9.65;;;;;;;;;;4967448;28;20050;-62
2023/09/26 05:53:16;;;;;;;14.55;9.57;;;;;;;;;;4963364;28;20050;-62
2023/09/26 05:55:42;;;;;;;17.83;10.75;;;;;;;;;;4974663;28;20538;-61
2023/09/26 05:58:09;;;;;;;13.15;9.52;;;;;;;;;;4967915;28;20046;-62
2023/09/26 06:00:37;;;;;;;13.25;9.15;;;;;;;;;;4960662;28;20152;-62
2023/09/26 06:03:04;;;;;;;14.68;9.63;;;;;;;;;;4970751;28;20042;-62
2023/09/26 06:05:30;;;;;;;12.85;8.70;;;;;;;;;;4977663;28;20141;-61
2023/09/26 06:07:57;;;;;;;11.57;9.38;;;;;;;;;;4980971;28;20066;-61
2023/09/26 06:10:24;;;;;;;14.32;8.85;;;;;;;;;;4973475;28;20475;-61
2023/09/26 06:12:53;;;;;;;11.40;8.40;;;;;;;;;;4982305;28;20042;-60
2023/09/26 06:15:21;;;;;;;12.77;8.00;;;;;;;;;;4979328;28;20046;-62
2023/09/26 06:17:49;;;;;;;14.27;8.77;;;;;;;;;;4983027;28;20487;-62
2023/09/26 06:20:16;;;;;;;12.05;8.63;;;;;;;;;;4969809;28;20134;-63
2023/09/26 06:22:43;;;;;;;13.10;8.90;;;;;;;;;;4969584;28;20543;-62
2023/09/26 06:25:10;;;;;;;12.35;8.70;;;;;;;;;;4977186;28;20047;-62
2023/09/26 06:27:37;;;;;;;16.00;9.85;;;;;;;;;;4979937;28;20053;-62
2023/09/26 06:30:04;;;;;;;14.63;10.07;;;;;;;;;;4976373;28;20133;-62
2023/09/26 06:32:31;;;;;;;15.38;10.20;;;;;;;;;;4975274;28;20122;-63
2023/09/26 06:35:01;;;;;;;14.93;10.10;;;;;;;;;;4980567;28;20142;-63
2023/09/26 06:37:27;;;;;;;17.02;12.05;;;;;;;;;;4973206;28;20059;-61
2023/09/26 06:39:58;;;;;;;18.35;12.30;;;;;;;;;;4983811;28;20043;-61
2023/09/26 06:42:24;;;;;;;19.70;12.70;;;;;;;;;;4969724;28;20133;-62
2023/09/26 06:44:51;;;;;;;19.23;12.63;;;;;;;;;;4974564;28;20487;-62
2023/09/26 06:47:18;;;;;;;18.73;12.38;;;;;;;;;;4959259;28;20491;-62
2023/09/26 06:49:46;;;;;;;22.17;11.70;;;;;;;;;;4959111;28;20043;-61
2023/09/26 06:52:15;;;;;;;17.42;12.02;;;;;;;;;;4968557;28;20058;-61
2023/09/26 06:54:42;;;;;;;21.15;12.05;;;;;;;;;;4962725;28;20051;-61
2023/09/26 06:57:09;;;;;;;20.00;12.98;;;;;;;;;;4973501;28;20050;-61
2023/09/26 06:59:36;;;;;;;18.23;11.68;;;;;;;;;;4974130;28;20047;-66
2023/09/26 07:02:03;;;;;;;18.92;11.60;;;;;;;;;;4964340;28;20051;-66
2023/09/26 07:04:30;;;;;;;16.23;11.68;;;;;;;;;;4962203;28;20039;-65
2023/09/26 07:06:56;;;;;;;17.52;10.88;;;;;;;;;;4975386;28;20491;-61
2023/09/26 07:09:25;;;;;;;18.23;12.02;;;;;;;;;;4971248;28;20042;-61
2023/09/26 07:11:53;;;;;;;18.75;11.55;;;;;;;;;;4964360;28;20051;-61
2023/09/26 07:14:20;;;;;;;17.60;11.82;;;;;;;;;;4960018;28;20047;-68
2023/09/26 07:16:47;;;;;;;20.15;12.95;;;;;;;;;;4969220;28;20116;-62
2023/09/26 07:19:13;;;;;;;23.02;14.27;;;;;;;;;;4977358;28;20126;-64
2023/09/26 07:21:40;;;;;;;22.27;13.55;;;;;;;;;;4956474;28;20043;-62
2023/09/26 07:24:08;;;;;;;20.27;13.50;;;;;;;;;;4966207;28;20700;-62
2023/09/26 07:26:36;;;;;;;22.25;14.95;;;;;;;;;;4963979;28;20121;-63
2023/09/26 07:29:02;;;;;;;28.25;15.85;;;;;;;;;;4972232;28;20566;-62
2023/09/26 07:31:31;;;;;;;36.38;17.88;;;;;;;;;;4962742;28;20053;-63
2023/09/26 07:33:57;;;;;;;22.25;13.27;;;;;;;;;;4966083;28;20050;-63
2023/09/26 07:36:24;;;;;;;25.27;13.95;;;;;;;;;;4968661;28;20070;-62
2023/09/26 07:38:51;;;;;;;20.95;14.00;;;;;;;;;;4975673;28;20125;-63
2023/09/26 07:41:17;;;;;;;21.88;13.20;;;;;;;;;;4962654;28;20074;-63
2023/09/26 07:43:45;;;;;;;23.42;14.15;;;;;;;;;;4963896;28;20046;-62
2023/09/26 07:46:14;;;;;;;20.40;13.43;;;;;;;;;;4967250;28;20058;-62
2023/09/26 07:48:42;;;;;;;22.95;14.50;;;;;;;;;;4964963;28;20098;-64
2023/09/26 07:51:10;;;;;;;25.83;16.13;;;;;;;;;;4963332;28;20494;-62
2023/09/26 07:53:37;;;;;;;24.50;15.25;;;;;;;;;;4965589;28;20058;-62
2023/09/26 07:56:04;;;;;;;23.17;15.25;;;;;;;;;;4972087;28;20042;-62
2023/09/26 07:58:31;;;;;;;25.67;15.48;;;;;;;;;;4967644;28;20127;-63
2023/09/26 08:01:00;;;;;;;21.52;14.40;;;;;;;;;;4975930;28;20525;-62
2023/09/26 08:03:27;;;;;;;25.60;15.48;;;;;;;;;;4955494;28;20050;-63
2023/09/26 08:05:59;;;;;;;27.00;17.10;;;;;;;;;;4954424;28;20130;-62
2023/09/26 08:08:26;;;;;;;25.42;16.95;;;;;;;;;;4954357;28;20106;-63
2023/09/26 08:10:53;;;;;;;26.20;17.75;;;;;;;;;;4953975;28;20044;-62
2023/09/26 08:13:19;;;;;;;28.00;18.00;;;;;;;;;;4954211;28;20067;-62
2023/09/26 08:15:46;;;;;;;29.27;19.73;;;;;;;;;;4954046;28;20460;-62
2023/09/26 08:18:14;;;;;;;30.42;17.70;;;;;;;;;;4961923;28;20047;-62
2023/09/26 08:20:41;;;;;;;28.35;15.95;;;;;;;;;;4953684;28;20070;-63
2023/09/26 08:23:08;;;;;;;25.40;16.75;;;;;;;;;;4953984;28;20090;-61
2023/09/26 08:25:36;;;;;;;29.52;17.77;;;;;;;;;;4953773;28;20090;-62
2023/09/26 08:28:04;;;;;;;33.30;19.55;;;;;;;;;;4953993;28;20117;-63
2023/09/26 08:30:33;;;;;;;33.38;20.38;;;;;;;;;;4953424;28;20047;-62
2023/09/26 08:32:59;;;;;;;32.88;21.23;;;;;;;;;;4953582;28;20049;-62
2023/09/26 08:35:27;;;;;;;35.20;20.92;;;;;;;;;;4953515;28;20048;-62
2023/09/26 08:37:54;;;;;;;30.83;18.98;;;;;;;;;;4959988;28;20050;-65
2023/09/26 08:40:25;;;;;;;33.17;20.73;;;;;;;;;;4971575;28;20085;-64
2023/09/26 08:42:54;;;;;;;36.47;21.08;;;;;;;;;;4960006;28;20078;-64
2023/09/26 08:45:21;;;;;;;37.43;22.10;;;;;;;;;;4972976;28;20134;-65
2023/09/26 08:47:49;;;;;;;36.35;21.15;;;;;;;;;;4973103;28;20135;-64
2023/09/26 08:50:16;;;;;;;35.33;21.15;;;;;;;;;;4955794;28;20081;-62
2023/09/26 08:52:44;;;;;;;33.13;19.85;;;;;;;;;;4965989;28;20140;-64
2023/09/26 08:55:11;;;;;;;35.10;19.85;;;;;;;;;;4973054;28;20057;-64
2023/09/26 08:57:38;;;;;;;31.67;19.48;;;;;;;;;;4961155;28;20414;-64
2023/09/26 09:00:09;;;;;;;34.10;20.60;;;;;;;;;;4961008;28;20127;-65
2023/09/26 09:02:35;;;;;;;34.40;19.92;;;;;;;;;;4965124;28;20061;-64
2023/09/26 09:05:03;;;;;;;32.75;19.08;;;;;;;;;;4972784;28;20051;-64
2023/09/26 09:07:31;;;;;;;33.85;20.25;;;;;;;;;;4972389;28;20101;-64
2023/09/26 09:10:08;;;;;;;31.13;18.40;;;;;;;;;;4972913;28;20047;-65
2023/09/26 09:12:37;;;;;;;32.55;20.88;;;;;;;;;;4973111;28;20043;-62
2023/09/26 09:15:18;;;;;;;30.73;17.90;;;;;;;;;;4965064;28;20055;-62
2023/09/26 09:17:45;;;;;;;33.10;19.90;;;;;;;;;;4953533;28;20130;-64
2023/09/26 09:20:16;;;;;;;36.83;20.27;;;;;;;;;;4969796;28;20082;-64
2023/09/26 09:22:46;;;;;;;33.42;20.35;;;;;;;;;;4972447;28;20499;-64
2023/09/26 09:25:14;;;;;;;36.60;20.23;;;;;;;;;;4956515;28;20056;-63
2023/09/26 09:27:43;;;;;;;32.10;19.55;;;;;;;;;;4959971;28;20067;-63
2023/09/26 09:30:13;;;;;;;30.85;19.60;;;;;;;;;;4961969;28;20537;-64
2023/09/26 09:32:41;;;;;;;26.63;18.40;;;;;;;;;;4966183;28;20070;-64
2023/09/26 09:35:10;;;;;;;26.77;18.00;;;;;;;;;;4966160;28;20475;-63
2023/09/26 09:37:36;;;;;;;27.50;17.45;;;;;;;;;;4965266;28;20142;-63
2023/09/26 09:40:04;;;;;;;28.00;17.60;;;;;;;;;;4975055;28;20425;-64
2023/09/26 09:42:32;;;;;;;25.58;16.58;;;;;;;;;;4964688;28;20087;-62
2023/09/26 09:44:59;;;;;;;27.88;17.90;;;;;;;;;;4968068;28;20133;-65
2023/09/26 09:47:30;;;;;;;27.90;18.05;;;;;;;;;;4967223;28;20059;-62
2023/09/26 09:49:59;;;;;;;;;;;;;;;;;;4974369;28;20127;-61
2023/09/26 09:52:30;;;;;;;24.60;15.60;;;;;;;;;;4970708;28;19921;-62
2023/09/26 09:54:58;;;;;;;25.10;16.23;;;;;;;;;;4971203;28;20066;-62
2023/09/26 09:57:28;;;;;;;24.15;15.82;;;;;;;;;;4961584;28;20462;-62
2023/09/26 10:00:07;;;;;;;25.25;16.35;;;;;;;;;;4972352;28;20110;-62
2023/09/26 10:02:34;;;;;;;26.73;16.15;;;;;;;;;;4962723;28;20082;-60
2023/09/26 10:05:06;;;;;;;25.92;15.75;;;;;;;;;;4968186;28;20043;-62
2023/09/26 10:07:34;;;;;;;23.90;15.57;;;;;;;;;;4968422;28;20055;-63
2023/09/26 10:10:02;;;;;;;24.65;16.17;;;;;;;;;;4966264;28;20507;-62
2023/09/26 10:12:29;;;;;;;21.13;15.43;;;;;;;;;;4960039;28;20055;-62
2023/09/26 10:14:57;;;;;;;22.42;14.85;;;;;;;;;;4974636;28;20169;-60
2023/09/26 10:17:24;;;;;;;21.15;14.00;;;;;;;;;;4971774;28;20081;-60
2023/09/26 10:19:50;;;;;;;18.95;11.85;;;;;;;;;;4973089;28;20066;-62
2023/09/26 10:22:18;;;;;;;22.38;14.90;;;;;;;;;;4970546;28;20053;-63
2023/09/26 10:24:46;;;;;;;22.92;16.15;;;;;;;;;;4974414;28;20051;-63
2023/09/26 10:27:13;;;;;;;23.02;14.65;;;;;;;;;;4970789;28;20046;-62
2023/09/26 10:29:39;;;;;;;22.63;14.57;;;;;;;;;;4977443;28;20059;-62
2023/09/26 10:32:10;;;;;;;21.23;15.45;;;;;;;;;;4966021;28;20484;-63
2023/09/26 10:34:38;;;;;;;23.25;15.52;;;;;;;;;;4962910;28;20546;-61
2023/09/26 10:37:07;;;;;;;22.40;14.27;;;;;;;;;;4976815;28;20042;-62
2023/09/26 10:39:36;;;;;;;19.95;14.80;;;;;;;;;;4967039;28;20568;-63
2023/09/26 10:42:13;;;;;;;25.48;16.88;;;;;;;;;;4980896;28;20144;-61
2023/09/26 10:44:39;;;;;;;24.08;15.88;;;;;;;;;;4970871;28;20050;-63
2023/09/26 10:47:07;;;;;;;27.50;16.83;;;;;;;;;;4967732;28;20081;-62
2023/09/26 10:49:34;;;;;;;22.85;16.15;;;;;;;;;;4973595;28;20487;-63
2023/09/26 10:52:02;;;;;;;21.27;14.65;;;;;;;;;;4968277;28;20051;-62
2023/09/26 10:54:30;;;;;;;25.50;16.42;;;;;;;;;;4972143;28;20422;-61
2023/09/26 10:56:58;;;;;;;23.23;14.95;;;;;;;;;;4971179;28;20390;-60
2023/09/26 10:59:27;;;;;;;24.33;15.82;;;;;;;;;;4969442;28;20328;-63
2023/09/26 11:01:55;;;;;;;21.48;15.00;;;;;;;;;;4973763;28;20421;-61
2023/09/26 11:04:25;;;;;;;21.58;14.82;;;;;;;;;;4971579;28;20069;-63
2023/09/26 11:06:51;;;;;;;21.55;14.60;;;;;;;;;;4975850;28;20473;-65
2023/09/26 11:09:18;;;;;;;22.80;16.00;;;;;;;;;;4970533;28;20133;-61
2023/09/26 11:11:45;;;;;;;20.20;13.07;;;;;;;;;;4973950;28;20051;-62
2023/09/26 11:14:11;;;;;;;21.80;14.13;;;;;;;;;;4973000;28;20051;-63
2023/09/26 11:16:41;;;;;;;19.88;13.52;;;;;;;;;;4977730;28;20354;-61
2023/09/26 11:19:09;;;;;;;19.00;13.25;;;;;;;;;;4972456;28;20055;-65
2023/09/26 11:21:37;;;;;;;22.48;14.23;;;;;;;;;;4966194;28;20047;-63
2023/09/26 11:24:18;;;;;;;21.95;13.80;;;;;;;;;;4968278;28;20302;-63
2023/09/26 11:26:45;;;;;;;20.30;12.68;;;;;;;;;;4969913;28;20138;-62
2023/09/26 11:29:13;;;;;;;20.25;13.68;;;;;;;;;;4965792;28;20494;-64
2023/09/26 11:31:41;;;;;;;19.80;13.48;;;;;;;;;;4974460;28;20122;-63
2023/09/26 11:34:09;;;;;;;18.98;13.75;;;;;;;;;;4965063;28;20062;-62
2023/09/26 11:36:38;;;;;;;17.70;11.90;;;;;;;;;;4972153;28;20518;-60
2023/09/26 11:39:05;;;;;;;18.10;12.48;;;;;;;;;;4973763;28;20138;-63
2023/09/26 11:41:32;;;;;;;18.45;11.60;;;;;;;;;;4964269;28;20047;-64
2023/09/26 11:44:08;;;;;;;17.67;12.35;;;;;;;;;;4970564;28;20134;-63
2023/09/26 11:46:39;;;;;;;15.95;10.57;;;;;;;;;;4969717;28;20043;-62
2023/09/26 11:49:06;;;;;;;17.23;12.98;;;;;;;;;;4972323;28;20046;-63
2023/09/26 11:51:32;;;;;;;14.88;10.48;;;;;;;;;;4965654;28;20051;-62
2023/09/26 11:54:00;;;;;;;16.73;11.70;;;;;;;;;;4963815;28;20411;-62
2023/09/26 11:56:28;;;;;;;14.23;10.23;;;;;;;;;;4965248;28;20490;-63
2023/09/26 11:58:54;;;;;;;16.13;11.00;;;;;;;;;;4971779;28;20049;-60
2023/09/26 12:01:21;;;;;;;14.65;9.85;;;;;;;;;;4976635;28;20531;-64
2023/09/26 12:03:48;;;;;;;13.40;9.68;;;;;;;;;;4979037;28;20057;-63
2023/09/26 12:06:14;;;;;;;13.82;10.25;;;;;;;;;;4975143;28;20054;-63
2023/09/26 12:08:43;;;;;;;12.63;9.48;;;;;;;;;;4970096;28;20492;-64
2023/09/26 12:11:11;;;;;;;14.82;10.30;;;;;;;;;;4971194;28;20050;-63
2023/09/26 12:13:38;;;;;;;19.45;11.38;;;;;;;;;;4976851;28;20043;-65
2023/09/26 12:16:05;;;;;;;15.80;10.68;;;;;;;;;;4970837;28;20054;-61
2023/09/26 12:18:32;;;;;;;14.73;9.85;;;;;;;;;;4971813;28;20084;-62
2023/09/26 12:21:00;;;;;;;13.32;10.02;;;;;;;;;;4973416;28;20058;-62
2023/09/26 12:23:28;;;;;;;12.65;9.32;;;;;;;;;;4973356;28;20050;-62
2023/09/26 12:25:55;;;;;;;13.55;9.05;;;;;;;;;;4974618;28;20043;-62
2023/09/26 12:28:23;;;;;;;13.55;9.98;;;;;;;;;;4968963;28;20098;-62
2023/09/26 12:30:50;;;;;;;12.20;7.68;;;;;;;;;;4976582;28;20126;-61
2023/09/26 12:33:16;;;;;;;14.90;10.18;;;;;;;;;;4973505;28;20059;-58
2023/09/26 12:35:43;;;;;;;13.70;10.40;;;;;;;;;;4967047;28;20126;-62
2023/09/26 12:38:10;;;;;;;13.80;9.32;;;;;;;;;;4977207;28;20046;-63
2023/09/26 12:40:36;;;;;;;12.63;9.35;;;;;;;;;;4976113;28;20417;-61
2023/09/26 12:43:03;;;;;;;13.35;8.93;;;;;;;;;;4974489;28;20515;-64
2023/09/26 12:45:31;;;;;;;9.85;6.63;;;;;;;;;;4970436;28;20526;-62
2023/09/26 12:47:58;;;;;;;11.48;7.85;;;;;;;;;;4972583;28;20066;-63
2023/09/26 12:50:25;;;;;;;10.60;7.90;;;;;;;;;;4971009;28;20058;-61
2023/09/26 12:52:55;;;;;;;11.73;8.13;;;;;;;;;;4975973;28;20066;-63
2023/09/26 12:55:21;;;;;;;9.85;7.25;;;;;;;;;;4973900;28;20153;-66
2023/09/26 12:57:48;;;;;;;11.02;7.82;;;;;;;;;;4965421;28;20051;-63
2023/09/26 13:00:16;;;;;;;12.02;8.02;;;;;;;;;;4979505;28;20495;-63
2023/09/26 13:02:44;;;;;;;10.07;7.70;;;;;;;;;;4967426;28;20495;-62
2023/09/26 13:05:11;;;;;;;10.70;7.50;;;;;;;;;;4973641;28;20131;-66
2023/09/26 13:07:38;;;;;;;11.82;8.23;;;;;;;;;;4973816;28;20130;-62
2023/09/26 13:10:06;;;;;;;9.85;7.60;;;;;;;;;;4977044;28;20052;-63
2023/09/26 13:12:33;;;;;;;9.23;6.47;;;;;;;;;;4969879;28;20495;-65
2023/09/26 13:15:00;;;;;;;11.00;8.07;;;;;;;;;;4961767;28;20426;-63
2023/09/26 13:17:26;;;;;;;9.10;7.13;;;;;;;;;;4970202;28;20042;-63
2023/09/26 13:19:54;;;;;;;9.75;7.35;;;;;;;;;;4978056;28;20051;-63
2023/09/26 13:22:21;;;;;;;10.70;7.15;;;;;;;;;;4974176;28;20054;-64
2023/09/26 13:24:48;;;;;;;8.52;6.97;;;;;;;;;;4979424;28;20129;-63
2023/09/26 13:27:15;;;;;;;10.95;6.80;;;;;;;;;;4978758;28;20561;-64
2023/09/26 13:29:41;;;;;;;12.65;8.88;;;;;;;;;;4970947;28;20087;-64
2023/09/26 13:32:07;;;;;;;13.88;8.13;;;;;;;;;;4971337;28;20635;-64
2023/09/26 13:34:36;;;;;;;12.15;7.65;;;;;;;;;;4955936;28;20060;-64
2023/09/26 13:37:04;;;;;;;8.10;6.60;;;;;;;;;;4968788;28;20043;-65
2023/09/26 13:39:31;;;;;;;10.13;7.47;;;;;;;;;;4974369;28;20051;-63
2023/09/26 13:41:57;;;;;;;11.88;7.63;;;;;;;;;;4961776;28;20039;-61
2023/09/26 13:44:24;;;;;;;11.38;7.93;;;;;;;;;;4969174;28;20050;-64
2023/09/26 13:46:51;;;;;;;12.20;8.15;;;;;;;;;;4969402;28;20485;-64
2023/09/26 13:49:17;;;;;;;8.30;6.40;;;;;;;;;;4970553;28;20056;-65
2023/09/26 13:51:44;;;;;;;10.27;7.15;;;;;;;;;;4969009;28;20049;-64
2023/09/26 13:54:12;;;;;;;11.48;7.45;;;;;;;;;;4966951;28;20423;-66
2023/09/26 13:56:39;;;;;;;10.15;8.05;;;;;;;;;;4972149;28;20574;-62
2023/09/26 13:59:05;;;;;;;9.70;7.13;;;;;;;;;;4967954;28;20078;-62
2023/09/26 14:01:32;;;;;;;11.75;7.63;;;;;;;;;;4965928;28;20211;-63
2023/09/26 14:03:59;;;;;;;8.25;6.47;;;;;;;;;;4971582;28;20051;-65
2023/09/26 14:06:25;;;;;;;8.65;6.30;;;;;;;;;;4975600;28;20054;-64
2023/09/26 14:08:52;;;;;;;9.32;7.13;;;;;;;;;;4985917;28;20056;-65
2023/09/26 14:11:20;;;;;;;9.65;7.43;;;;;;;;;;4969939;28;20475;-63
2023/09/26 14:13:47;;;;;;;9.18;7.63;;;;;;;;;;4971485;28;20423;-64
2023/09/26 14:16:14;;;;;;;9.90;8.38;;;;;;;;;;4972967;28;20055;-64
2023/09/26 14:18:40;;;;;;;11.00;7.65;;;;;;;;;;4963255;28;20374;-65
2023/09/26 14:21:13;;;;;;;11.27;7.85;;;;;;;;;;4969098;28;20467;-63
2023/09/26 14:23:41;;;;;;;8.85;6.55;;;;;;;;;;4964301;28;20568;-66
2023/09/26 14:26:08;;;;;;;9.10;6.93;;;;;;;;;;4974238;28;20399;-64